Phnom Penh, Cambodia
Current Conditions -  °F | °C
As of 8:00 PM on Sunday 23 Nov 2014 (Local Time) from VDPP Reporting Station
Few Clouds Few Clouds  
Wind Chill: 84°   Ceiling: Unl
Heat Index: 94°   Visibility: 6mi
Dew Point: 77°   Wind: 2mph
Humidity: 79%   Direction: NA
Pressure: 29.8"   Gusts: NA
Location:  11.56°N, 104.92°E
Report Text: VDPP 231300Z VRB02KT 9000 FEW017 29/25 Q1009
Loading
Personal Weather Stations






























Interactive Weather Map New forecast layout! Learn more

10-Day Weather Forecast

Advertisements
Track Severe Weather on mobile